createdAt,value
2018-10-11T00:00:14.202Z,0.00
2018-10-11T00:01:14.134Z,0.00
2018-10-11T00:02:14.044Z,0.00
2018-10-11T00:03:13.968Z,0.00
2018-10-11T00:04:13.897Z,0.00
2018-10-11T00:05:13.815Z,0.00
2018-10-11T00:06:13.742Z,0.00
2018-10-11T00:07:13.660Z,0.00
2018-10-11T00:08:13.585Z,0.00
2018-10-11T00:09:13.508Z,0.00
2018-10-11T00:10:13.431Z,0.00
2018-10-11T00:11:13.355Z,0.00
2018-10-11T00:12:13.281Z,0.00
2018-10-11T00:13:13.204Z,0.00
2018-10-11T00:14:13.129Z,0.00
2018-10-11T00:15:13.050Z,0.00
2018-10-11T00:16:12.973Z,0.00
2018-10-11T00:17:12.899Z,0.00
2018-10-11T00:18:12.822Z,0.00
2018-10-11T00:19:12.743Z,0.00
2018-10-11T00:20:12.670Z,0.00
2018-10-11T00:21:12.601Z,0.00
2018-10-11T00:22:12.510Z,0.00
2018-10-11T00:23:12.434Z,0.00
2018-10-11T00:24:12.360Z,0.00
2018-10-11T00:25:12.281Z,0.00
2018-10-11T00:26:12.205Z,0.00
2018-10-11T00:27:12.128Z,0.00
2018-10-11T00:28:12.054Z,0.00
2018-10-11T00:29:11.975Z,0.00
2018-10-11T00:30:11.899Z,0.00
2018-10-11T00:31:11.823Z,0.00
2018-10-11T00:32:11.746Z,0.00
2018-10-11T00:33:11.670Z,0.00
2018-10-11T00:34:11.595Z,0.00
2018-10-11T00:35:11.515Z,0.00
2018-10-11T00:36:11.436Z,0.00
2018-10-11T00:37:11.362Z,0.00
2018-10-11T00:38:11.284Z,0.00
2018-10-11T00:39:11.211Z,0.00
2018-10-11T00:40:11.132Z,0.00
2018-10-11T00:41:11.057Z,0.00
2018-10-11T00:42:10.978Z,0.00
2018-10-11T00:43:10.901Z,0.00
2018-10-11T00:44:10.824Z,0.00
2018-10-11T00:45:10.748Z,0.00
2018-10-11T00:46:10.671Z,0.00
2018-10-11T00:47:10.593Z,0.00
2018-10-11T00:48:10.516Z,0.00
2018-10-11T00:49:10.443Z,0.00
2018-10-11T00:50:10.362Z,0.00
2018-10-11T00:51:10.288Z,0.00
2018-10-11T00:52:10.214Z,0.00
2018-10-11T00:53:10.153Z,0.00
2018-10-11T00:54:10.058Z,0.00
2018-10-11T00:55:09.981Z,0.00
2018-10-11T00:56:09.901Z,0.00
2018-10-11T00:57:09.825Z,0.00
2018-10-11T00:58:09.748Z,0.00
2018-10-11T00:59:09.672Z,0.00
2018-10-11T01:00:09.598Z,0.00
2018-10-11T01:01:09.524Z,0.00
2018-10-11T01:02:09.443Z,0.00
2018-10-11T01:03:09.366Z,0.00
2018-10-11T01:04:09.289Z,0.00
2018-10-11T01:05:09.212Z,0.00
2018-10-11T01:06:09.136Z,0.00
2018-10-11T01:07:09.058Z,0.00
2018-10-11T01:08:08.986Z,0.00
2018-10-11T01:09:08.905Z,0.00
2018-10-11T01:10:08.892Z,0.00
2018-10-11T01:11:08.749Z,0.00
2018-10-11T01:12:08.672Z,0.00
2018-10-11T01:13:08.594Z,0.00
2018-10-11T01:14:08.517Z,0.00
2018-10-11T01:15:08.441Z,0.00
2018-10-11T01:16:08.363Z,0.00
2018-10-11T01:17:08.286Z,0.00
2018-10-11T01:18:08.213Z,0.00
2018-10-11T01:19:08.131Z,0.00
2018-10-11T01:20:08.055Z,0.00
2018-10-11T01:21:07.977Z,0.00
2018-10-11T01:22:07.903Z,0.00
2018-10-11T01:23:07.829Z,0.00
2018-10-11T01:24:07.746Z,0.00
2018-10-11T01:25:07.670Z,0.00
2018-10-11T01:26:07.630Z,0.00
2018-10-11T01:27:07.517Z,0.00
2018-10-11T01:28:07.439Z,0.00
2018-10-11T01:29:07.360Z,0.00
2018-10-11T01:30:07.379Z,0.00
2018-10-11T01:31:07.210Z,0.00
2018-10-11T01:32:07.129Z,0.00
2018-10-11T01:33:07.055Z,0.00
2018-10-11T01:34:06.980Z,0.00
2018-10-11T01:35:06.899Z,0.00
2018-10-11T01:36:06.820Z,0.00
2018-10-11T01:37:06.746Z,0.00
2018-10-11T01:38:06.669Z,0.00
2018-10-11T01:39:06.591Z,0.00
2018-10-11T01:40:06.521Z,0.00
2018-10-11T01:41:06.441Z,0.00
2018-10-11T01:42:06.360Z,0.00
2018-10-11T01:43:06.280Z,0.00
2018-10-11T01:44:06.207Z,0.00
2018-10-11T01:45:06.135Z,0.00
2018-10-11T01:46:06.056Z,0.00
2018-10-11T01:47:05.973Z,0.00
2018-10-11T01:48:05.897Z,0.00
2018-10-11T01:49:05.819Z,0.00
2018-10-11T01:50:05.744Z,0.00
2018-10-11T01:51:05.669Z,0.00
2018-10-11T01:52:05.593Z,0.00
2018-10-11T01:53:05.511Z,0.00
2018-10-11T01:54:05.434Z,0.00
2018-10-11T01:55:05.359Z,0.00
2018-10-11T01:56:05.284Z,0.00
2018-10-11T01:57:05.203Z,0.00
2018-10-11T01:58:05.125Z,0.00
2018-10-11T01:59:05.047Z,0.00
2018-10-11T02:00:04.972Z,0.00
2018-10-11T02:01:04.895Z,0.00
2018-10-11T02:02:04.816Z,0.00
2018-10-11T02:03:04.750Z,0.00
2018-10-11T02:04:04.664Z,0.00
2018-10-11T02:05:04.588Z,0.00
2018-10-11T02:06:04.510Z,0.00
2018-10-11T02:07:04.438Z,0.00
2018-10-11T02:08:04.356Z,0.00
2018-10-11T02:09:04.277Z,0.00
2018-10-11T02:10:04.899Z,0.00
2018-10-11T02:11:12.794Z,0.00
2018-10-11T02:13:09.478Z,0.00
2018-10-11T02:14:09.353Z,0.00
2018-10-11T02:16:13.913Z,0.00
2018-10-11T02:17:13.784Z,0.00
2018-10-11T02:19:19.115Z,0.00
2018-10-11T02:20:19.030Z,0.00
2018-10-11T02:22:23.388Z,0.00
2018-10-11T02:23:23.262Z,0.00
2018-10-11T02:25:27.622Z,0.00
2018-10-11T02:26:27.497Z,0.00
2018-10-11T02:28:32.009Z,0.00
2018-10-11T02:29:31.928Z,0.00
2018-10-11T02:31:24.765Z,0.00
2018-10-11T02:32:24.635Z,0.00
2018-10-11T02:34:28.954Z,0.00
2018-10-11T02:35:28.879Z,0.00
2018-10-11T02:36:28.783Z,0.00
2018-10-11T02:37:28.706Z,0.00
2018-10-11T02:38:28.629Z,0.00
2018-10-11T02:39:28.561Z,0.00
2018-10-11T02:40:28.471Z,0.00
2018-10-11T02:41:28.440Z,0.00
2018-10-11T02:42:28.322Z,0.00
2018-10-11T02:43:28.243Z,0.00
2018-10-11T02:44:28.168Z,0.00
2018-10-11T02:45:28.085Z,0.00
2018-10-11T02:46:28.012Z,0.00
2018-10-11T02:47:27.932Z,0.00
2018-10-11T02:48:27.852Z,0.00
2018-10-11T02:49:27.776Z,0.00
2018-10-11T02:50:27.704Z,0.00
2018-10-11T02:51:27.620Z,0.00
2018-10-11T02:52:27.544Z,0.00
2018-10-11T02:53:27.466Z,0.00
2018-10-11T02:54:27.393Z,0.00
2018-10-11T02:55:27.312Z,0.00
2018-10-11T02:56:27.237Z,0.00
2018-10-11T02:57:27.157Z,0.00
2018-10-11T02:58:27.088Z,0.00
2018-10-11T02:59:27.003Z,0.00
2018-10-11T03:00:26.924Z,0.00
2018-10-11T03:01:26.860Z,0.00
2018-10-11T03:02:26.771Z,0.00
2018-10-11T03:03:26.695Z,0.00
2018-10-11T03:04:26.615Z,0.00
2018-10-11T03:05:26.537Z,0.00
2018-10-11T03:06:26.460Z,0.00
2018-10-11T03:07:26.383Z,0.00
2018-10-11T03:08:26.306Z,0.00
2018-10-11T03:09:26.244Z,0.00
2018-10-11T03:10:26.148Z,0.00
2018-10-11T03:11:26.078Z,0.00
2018-10-11T03:12:25.993Z,0.00
2018-10-11T03:13:25.918Z,0.00
2018-10-11T03:14:25.841Z,0.00
2018-10-11T03:15:25.767Z,0.00
2018-10-11T03:16:25.682Z,0.00
2018-10-11T03:17:25.609Z,0.00
2018-10-11T03:18:25.529Z,0.00
2018-10-11T03:19:25.450Z,0.00
2018-10-11T03:20:25.375Z,0.00
2018-10-11T03:21:25.296Z,0.00
2018-10-11T03:22:25.219Z,0.00
2018-10-11T03:23:25.142Z,0.00
2018-10-11T03:24:25.064Z,0.00
2018-10-11T03:25:24.986Z,0.00
2018-10-11T03:26:24.911Z,0.00
2018-10-11T03:27:24.830Z,0.00
2018-10-11T03:28:24.749Z,0.00
2018-10-11T03:29:24.675Z,0.00
2018-10-11T03:30:24.598Z,0.00
2018-10-11T03:31:24.519Z,0.00
2018-10-11T03:32:24.442Z,0.00
2018-10-11T03:33:24.362Z,0.00
2018-10-11T03:34:24.285Z,0.00
2018-10-11T03:35:24.207Z,0.00
2018-10-11T03:36:24.132Z,0.00
2018-10-11T03:37:24.053Z,0.00
2018-10-11T03:38:23.976Z,0.00
2018-10-11T03:39:23.898Z,0.00
2018-10-11T03:40:23.818Z,0.00
2018-10-11T03:41:23.742Z,0.00
2018-10-11T03:42:23.664Z,0.00
2018-10-11T03:43:23.585Z,0.00
2018-10-11T03:44:23.507Z,0.00
2018-10-11T03:45:23.430Z,0.00
2018-10-11T03:46:23.372Z,0.00
2018-10-11T03:47:23.279Z,0.00
2018-10-11T03:48:23.196Z,0.00
2018-10-11T03:49:23.125Z,0.00
2018-10-11T03:50:23.042Z,0.00
2018-10-11T03:51:22.968Z,0.00
2018-10-11T03:52:22.884Z,0.00
2018-10-11T03:53:22.810Z,0.00
2018-10-11T03:54:22.730Z,0.00
2018-10-11T03:55:22.653Z,0.00
2018-10-11T03:56:22.574Z,0.00
2018-10-11T03:57:22.495Z,0.00
2018-10-11T03:58:22.419Z,0.00
2018-10-11T03:59:22.340Z,0.00
2018-10-11T04:00:22.405Z,0.00
2018-10-11T04:01:22.185Z,0.00
2018-10-11T04:02:22.109Z,0.00
2018-10-11T04:03:22.028Z,0.00
2018-10-11T04:04:21.951Z,0.00
2018-10-11T04:05:21.875Z,0.00
2018-10-11T04:06:21.804Z,0.00
2018-10-11T04:07:21.751Z,0.00
2018-10-11T04:08:21.626Z,0.00
2018-10-11T04:09:21.546Z,0.00
2018-10-11T04:10:21.472Z,0.00
2018-10-11T04:11:21.391Z,0.00
2018-10-11T04:12:21.313Z,0.00
2018-10-11T04:13:21.237Z,0.00
2018-10-11T04:14:21.163Z,0.00
2018-10-11T04:15:21.099Z,0.00
2018-10-11T04:16:21.002Z,0.00
2018-10-11T04:17:20.928Z,0.00
2018-10-11T04:18:20.845Z,0.00
2018-10-11T04:19:20.767Z,0.00
2018-10-11T04:20:20.693Z,0.00
2018-10-11T04:21:20.613Z,0.00
2018-10-11T04:22:20.535Z,0.00
2018-10-11T04:23:20.461Z,0.00
2018-10-11T04:24:20.379Z,0.00
2018-10-11T04:25:20.300Z,0.00
2018-10-11T04:26:20.226Z,0.00
2018-10-11T04:27:20.146Z,0.00
2018-10-11T04:28:20.065Z,0.00
2018-10-11T04:29:19.990Z,0.00
2018-10-11T04:30:19.918Z,0.00
2018-10-11T04:31:19.841Z,0.00
2018-10-11T04:32:19.756Z,0.00
2018-10-11T04:33:19.675Z,0.00
2018-10-11T04:34:19.600Z,0.00
2018-10-11T04:35:19.560Z,0.00
2018-10-11T04:36:19.458Z,0.00
2018-10-11T04:37:19.367Z,0.00
2018-10-11T04:38:19.288Z,0.00
2018-10-11T04:39:19.207Z,0.00
2018-10-11T04:40:19.129Z,0.00
2018-10-11T04:41:19.056Z,0.00
2018-10-11T04:42:18.975Z,0.00
2018-10-11T04:43:18.997Z,0.00
2018-10-11T04:44:18.822Z,0.00
2018-10-11T04:45:18.741Z,0.00
2018-10-11T04:46:18.663Z,0.00
2018-10-11T04:47:18.583Z,0.00
2018-10-11T04:48:18.528Z,0.00
2018-10-11T04:49:18.430Z,0.00
2018-10-11T04:50:18.348Z,0.00
2018-10-11T04:51:18.272Z,0.00
2018-10-11T04:52:18.192Z,0.00
2018-10-11T04:53:18.116Z,0.00
2018-10-11T04:54:18.040Z,0.00
2018-10-11T04:55:17.962Z,0.00
2018-10-11T04:56:17.881Z,0.00
2018-10-11T04:57:17.802Z,0.00
2018-10-11T04:58:17.727Z,0.00
2018-10-11T04:59:17.648Z,0.00
2018-10-11T05:00:17.571Z,4.00
2018-10-11T05:01:17.491Z,0.00
2018-10-11T05:02:17.444Z,4.00
2018-10-11T05:03:17.332Z,4.00
2018-10-11T05:04:17.256Z,4.00
2018-10-11T05:05:17.219Z,8.00
2018-10-11T05:06:17.099Z,8.00
2018-10-11T05:07:17.024Z,8.00
2018-10-11T05:08:16.943Z,8.00
2018-10-11T05:09:16.867Z,12.00
2018-10-11T05:10:16.789Z,8.00
2018-10-11T05:11:16.720Z,12.00
2018-10-11T05:12:16.632Z,16.00
2018-10-11T05:13:16.557Z,20.00
2018-10-11T05:14:16.475Z,24.00
2018-10-11T05:15:16.396Z,24.00
2018-10-11T05:16:16.321Z,32.00
2018-10-11T05:17:16.298Z,36.00
2018-10-11T05:18:16.165Z,44.00
2018-10-11T05:19:16.088Z,48.00
2018-10-11T05:20:16.010Z,56.00
2018-10-11T05:21:15.997Z,60.00
2018-10-11T05:22:15.858Z,72.00
2018-10-11T05:23:15.771Z,76.00
2018-10-11T05:24:15.695Z,88.00
2018-10-11T05:25:15.626Z,96.00
2018-10-11T05:26:15.654Z,108.00
2018-10-11T05:27:15.461Z,116.00
2018-10-11T05:28:15.382Z,132.00
2018-10-11T05:29:15.304Z,140.00
2018-10-11T05:30:15.227Z,152.00
2018-10-11T05:31:15.149Z,168.00
2018-10-11T05:32:15.165Z,180.00
2018-10-11T05:33:14.993Z,192.00
2018-10-11T05:34:14.914Z,208.00
2018-10-11T05:35:14.834Z,220.00
2018-10-11T05:36:14.758Z,232.00
2018-10-11T05:37:14.681Z,248.00
2018-10-11T05:38:14.626Z,268.00
2018-10-11T05:39:14.529Z,280.00
2018-10-11T05:40:14.496Z,296.00
2018-10-11T05:41:14.373Z,308.00
2018-10-11T05:42:14.349Z,324.00
2018-10-11T05:43:14.211Z,340.00
2018-10-11T05:44:14.152Z,356.00
2018-10-11T05:45:14.055Z,368.00
2018-10-11T05:46:13.980Z,388.00
2018-10-11T05:47:13.905Z,400.00
2018-10-11T05:48:13.821Z,420.00
2018-10-11T05:49:13.743Z,436.00
2018-10-11T05:50:13.717Z,444.00
2018-10-11T05:51:13.586Z,464.00
2018-10-11T05:52:13.509Z,472.00
2018-10-11T05:53:13.429Z,492.00
2018-10-11T05:54:13.361Z,508.00
2018-10-11T05:55:13.277Z,520.00
2018-10-11T05:56:13.200Z,536.00
2018-10-11T05:57:13.122Z,556.00
2018-10-11T05:58:13.042Z,560.00
2018-10-11T05:59:12.963Z,580.00
2018-10-11T06:00:12.883Z,596.00
2018-10-11T06:01:12.805Z,612.00
2018-10-11T06:02:12.741Z,624.00
2018-10-11T06:03:12.648Z,628.00
2018-10-11T06:04:12.660Z,660.00
2018-10-11T06:05:12.492Z,660.00
2018-10-11T06:06:12.413Z,676.00
2018-10-11T06:07:12.341Z,688.00
2018-10-11T06:08:12.260Z,708.00
2018-10-11T06:09:12.180Z,724.00
2018-10-11T06:10:12.104Z,732.00
2018-10-11T06:11:12.023Z,744.00
2018-10-11T06:12:11.948Z,776.00
2018-10-11T06:13:11.872Z,792.00
2018-10-11T06:14:11.789Z,804.00
2018-10-11T06:15:11.712Z,824.00
2018-10-11T06:16:11.635Z,840.00
2018-10-11T06:17:11.563Z,856.00
2018-10-11T06:18:11.478Z,836.00
2018-10-11T06:19:11.407Z,848.00
2018-10-11T06:20:11.321Z,860.00
2018-10-11T06:21:11.242Z,868.00
2018-10-11T06:22:11.167Z,876.00
2018-10-11T06:23:11.090Z,916.00
2018-10-11T06:24:11.008Z,932.00
2018-10-11T06:25:10.933Z,900.00
2018-10-11T06:26:10.856Z,916.00
2018-10-11T06:27:10.778Z,924.00
2018-10-11T06:28:10.696Z,940.00
2018-10-11T06:29:10.622Z,944.00
2018-10-11T06:30:10.574Z,952.00
2018-10-11T06:31:10.468Z,960.00
2018-10-11T06:32:10.383Z,968.00
2018-10-11T06:33:10.306Z,976.00
2018-10-11T06:34:10.228Z,984.00
2018-10-11T06:35:10.154Z,988.00
2018-10-11T06:36:10.176Z,1000.00
2018-10-11T06:37:09.998Z,1024.00
2018-10-11T06:38:09.917Z,1060.00
2018-10-11T06:39:09.841Z,1072.00
2018-10-11T06:40:09.760Z,1080.00
2018-10-11T06:41:09.686Z,1092.00
2018-10-11T06:42:09.668Z,1096.00
2018-10-11T06:43:09.527Z,1096.00
2018-10-11T06:44:09.485Z,1104.00
2018-10-11T06:45:09.446Z,1112.00
2018-10-11T06:46:09.294Z,1116.00
2018-10-11T06:47:09.217Z,1120.00
2018-10-11T06:48:09.136Z,1128.00
2018-10-11T06:49:09.062Z,1132.00
2018-10-11T06:50:09.078Z,1136.00
2018-10-11T06:51:08.904Z,1144.00
2018-10-11T06:52:08.826Z,1148.00
2018-10-11T06:53:08.762Z,1156.00
2018-10-11T06:54:08.674Z,1164.00
2018-10-11T06:55:08.595Z,1168.00
2018-10-11T06:56:08.518Z,1172.00
2018-10-11T06:57:08.438Z,1180.00
2018-10-11T06:58:08.359Z,1188.00
2018-10-11T06:59:08.281Z,1192.00
2018-10-11T07:00:08.205Z,1196.00
2018-10-11T07:01:08.127Z,1204.00
2018-10-11T07:02:08.052Z,1208.00
2018-10-11T07:03:07.972Z,1212.00
2018-10-11T07:04:07.894Z,1224.00
2018-10-11T07:05:07.817Z,1224.00
2018-10-11T07:06:07.747Z,1228.00
2018-10-11T07:07:07.704Z,1240.00
2018-10-11T07:08:07.585Z,1240.00
2018-10-11T07:09:07.507Z,1244.00
2018-10-11T07:10:07.435Z,1252.00
2018-10-11T07:11:07.350Z,1252.00
2018-10-11T07:12:07.276Z,1268.00
2018-10-11T07:13:07.193Z,1264.00
2018-10-11T07:14:07.228Z,1272.00
2018-10-11T07:15:07.041Z,1276.00
2018-10-11T07:16:06.962Z,1280.00
2018-10-11T07:17:06.892Z,1288.00
2018-10-11T07:18:06.805Z,1292.00
2018-10-11T07:19:06.731Z,1296.00
2018-10-11T07:20:06.768Z,1304.00
2018-10-11T07:21:06.573Z,1312.00
2018-10-11T07:22:06.499Z,1316.00
2018-10-11T07:23:06.477Z,1320.00
2018-10-11T07:24:06.339Z,1328.00
2018-10-11T07:25:06.266Z,1332.00
2018-10-11T07:26:06.190Z,1336.00
2018-10-11T07:27:06.109Z,1340.00
2018-10-11T07:28:06.033Z,1352.00
2018-10-11T07:29:05.967Z,1352.00
2018-10-11T07:30:05.880Z,1356.00
2018-10-11T07:31:05.799Z,1360.00
2018-10-11T07:32:05.726Z,1368.00
2018-10-11T07:33:05.643Z,1368.00
2018-10-11T07:34:05.566Z,1376.00
2018-10-11T07:35:05.555Z,1380.00
2018-10-11T07:36:05.417Z,1384.00
2018-10-11T07:37:05.337Z,1388.00
2018-10-11T07:38:05.263Z,1392.00
2018-10-11T07:39:05.184Z,1400.00
2018-10-11T07:40:05.109Z,1408.00
2018-10-11T07:41:05.113Z,1412.00
2018-10-11T07:42:04.952Z,1412.00
2018-10-11T07:43:04.870Z,1416.00
2018-10-11T07:44:04.801Z,1424.00
2018-10-11T07:45:04.717Z,1424.00
2018-10-11T07:46:04.648Z,1428.00
2018-10-11T07:47:04.576Z,1392.00
2018-10-11T07:48:04.486Z,1388.00
2018-10-11T07:49:04.415Z,1404.00
2018-10-11T07:50:04.335Z,1388.00
2018-10-11T07:51:04.254Z,1388.00
2018-10-11T07:52:04.181Z,1396.00
2018-10-11T07:53:04.106Z,1424.00
2018-10-11T07:54:04.022Z,1408.00
2018-10-11T07:55:03.946Z,1428.00
2018-10-11T07:56:03.867Z,1416.00
2018-10-11T07:57:03.792Z,1424.00
2018-10-11T07:58:03.718Z,1424.00
2018-10-11T07:59:03.636Z,1424.00
2018-10-11T08:00:03.563Z,1432.00
2018-10-11T08:01:03.505Z,1456.00
2018-10-11T08:02:03.407Z,1448.00
2018-10-11T08:03:03.331Z,1460.00
2018-10-11T08:04:03.249Z,1448.00
2018-10-11T08:05:03.181Z,1452.00
2018-10-11T08:06:03.100Z,1452.00
2018-10-11T08:07:03.083Z,1460.00
2018-10-11T08:08:02.941Z,1464.00
2018-10-11T08:09:02.940Z,1468.00
2018-10-11T08:10:02.787Z,1476.00
2018-10-11T08:11:10.063Z,1488.00
2018-10-11T08:13:06.592Z,1516.00
2018-10-11T08:14:06.465Z,1524.00
2018-10-11T08:16:10.479Z,1508.00
2018-10-11T08:17:10.563Z,1512.00
2018-10-11T08:19:14.843Z,1556.00
2018-10-11T08:20:14.630Z,1576.00
2018-10-11T08:22:07.714Z,1576.00
2018-10-11T08:23:07.590Z,1580.00
2018-10-11T08:25:11.953Z,1544.00
2018-10-11T08:26:12.350Z,1560.00
2018-10-11T08:28:16.165Z,1572.00
2018-10-11T08:29:16.035Z,1572.00
2018-10-11T08:31:20.405Z,1580.00
2018-10-11T08:32:20.336Z,1592.00
2018-10-11T08:34:24.552Z,1588.00
2018-10-11T08:35:24.489Z,1600.00
2018-10-11T08:37:28.906Z,1604.00
2018-10-11T08:38:28.795Z,1608.00
2018-10-11T08:40:32.620Z,1644.00
2018-10-11T08:41:32.540Z,1648.00
2018-10-11T08:43:36.855Z,1632.00
2018-10-11T08:44:36.677Z,1636.00
2018-10-11T08:46:40.485Z,1648.00
2018-10-11T08:47:40.405Z,1648.00
2018-10-11T08:48:40.330Z,1660.00
2018-10-11T08:49:40.254Z,1664.00
2018-10-11T08:50:40.227Z,1664.00
2018-10-11T08:51:40.101Z,1672.00
2018-10-11T08:52:40.029Z,1668.00
2018-10-11T08:53:40.025Z,1672.00
2018-10-11T08:54:39.940Z,1684.00
2018-10-11T08:55:39.920Z,1676.00
2018-10-11T08:56:39.727Z,1680.00
2018-10-11T08:57:39.645Z,1680.00
2018-10-11T08:58:39.570Z,1684.00
2018-10-11T08:59:39.603Z,1708.00
2018-10-11T09:00:39.415Z,1696.00
2018-10-11T09:01:39.343Z,1708.00
2018-10-11T09:02:39.269Z,1708.00
2018-10-11T09:03:39.294Z,1716.00
2018-10-11T09:04:39.111Z,1720.00
2018-10-11T09:05:39.043Z,1736.00
2018-10-11T09:06:38.966Z,1796.00
2018-10-11T09:07:38.883Z,1760.00
2018-10-11T09:08:38.806Z,1736.00
2018-10-11T09:09:38.792Z,1764.00
2018-10-11T09:10:38.806Z,1768.00
2018-10-11T09:11:38.579Z,1772.00
2018-10-11T09:12:38.502Z,1776.00
2018-10-11T09:13:38.441Z,1780.00
2018-10-11T09:14:38.351Z,1788.00
2018-10-11T09:15:38.274Z,1792.00
2018-10-11T09:16:38.200Z,1800.00
2018-10-11T09:17:38.122Z,1820.00
2018-10-11T09:18:38.048Z,1812.00
2018-10-11T09:19:37.969Z,1812.00
2018-10-11T09:20:37.912Z,1828.00
2018-10-11T09:21:37.819Z,1844.00
2018-10-11T09:22:37.746Z,1852.00
2018-10-11T09:23:37.670Z,1872.00
2018-10-11T09:24:37.595Z,1888.00
2018-10-11T09:25:37.717Z,1912.00
2018-10-11T09:26:37.443Z,1936.00
2018-10-11T09:27:37.412Z,1952.00
2018-10-11T09:28:37.305Z,1968.00
2018-10-11T09:29:37.215Z,1996.00
2018-10-11T09:30:37.145Z,2000.00
2018-10-11T09:31:37.066Z,2008.00
2018-10-11T09:32:37.013Z,2028.00
2018-10-11T09:33:37.005Z,2076.00
2018-10-11T09:34:36.881Z,2208.00
2018-10-11T09:35:36.801Z,2152.00
2018-10-11T09:36:37.736Z,2160.00
2018-10-11T09:37:36.649Z,2120.00
2018-10-11T09:38:36.558Z,2136.00
2018-10-11T09:39:36.464Z,2172.00
2018-10-11T09:40:36.394Z,2216.00
2018-10-11T09:41:36.312Z,2192.00
2018-10-11T09:42:36.236Z,2260.00
2018-10-11T09:43:36.164Z,2260.00
2018-10-11T09:44:36.088Z,2288.00
2018-10-11T09:45:36.038Z,2280.00
2018-10-11T09:46:35.937Z,2320.00
2018-10-11T09:47:35.858Z,2336.00
2018-10-11T09:48:35.833Z,2344.00
2018-10-11T09:49:35.710Z,2360.00
2018-10-11T09:50:35.636Z,2380.00
2018-10-11T09:51:35.564Z,2352.00
2018-10-11T09:52:35.485Z,2364.00
2018-10-11T09:53:35.411Z,2388.00
2018-10-11T09:54:35.421Z,2424.00
2018-10-11T09:55:35.263Z,2520.00
2018-10-11T09:56:35.185Z,2492.00
2018-10-11T09:57:35.117Z,2556.00
2018-10-11T09:58:35.034Z,2708.00
2018-10-11T09:59:34.963Z,2620.00
2018-10-11T10:00:34.888Z,2596.00
2018-10-11T10:01:34.824Z,2640.00
2018-10-11T10:02:34.735Z,2460.00
2018-10-11T10:03:34.663Z,2700.00
2018-10-11T10:04:34.600Z,2568.00
2018-10-11T10:05:34.528Z,2392.00
2018-10-11T10:06:34.435Z,2368.00
2018-10-11T10:07:34.380Z,2564.00
2018-10-11T10:08:34.291Z,2548.00
2018-10-11T10:09:34.215Z,2568.00
2018-10-11T10:10:34.139Z,2680.00
2018-10-11T10:11:34.064Z,2644.00
2018-10-11T10:12:33.989Z,2676.00
2018-10-11T10:13:33.975Z,2708.00
2018-10-11T10:14:33.844Z,2808.00
2018-10-11T10:15:33.798Z,2860.00
2018-10-11T10:16:33.692Z,2804.00
2018-10-11T10:17:33.617Z,2744.00
2018-10-11T10:18:33.622Z,5340.00
2018-10-11T10:19:33.475Z,2796.00
2018-10-11T10:20:33.392Z,2760.00
2018-10-11T10:21:33.369Z,2664.00
2018-10-11T10:22:33.243Z,2708.00
2018-10-11T10:23:33.173Z,2692.00
2018-10-11T10:24:33.097Z,2616.00
2018-10-11T10:25:33.051Z,2628.00
2018-10-11T10:26:32.991Z,2644.00
2018-10-11T10:27:32.945Z,2636.00
2018-10-11T10:28:32.802Z,2840.00
2018-10-11T10:29:32.726Z,2888.00
2018-10-11T10:30:32.651Z,2728.00
2018-10-11T10:31:32.581Z,2736.00
2018-10-11T10:32:32.749Z,2744.00
2018-10-11T10:33:32.431Z,2820.00
2018-10-11T10:34:32.355Z,2848.00
2018-10-11T10:35:32.281Z,2856.00
2018-10-11T10:36:32.208Z,2888.00
2018-10-11T10:37:32.151Z,2928.00
2018-10-11T10:38:32.059Z,2964.00
2018-10-11T10:39:31.984Z,2980.00
2018-10-11T10:40:31.913Z,3068.00
2018-10-11T10:41:31.837Z,3104.00
2018-10-11T10:42:31.769Z,3120.00
2018-10-11T10:43:31.767Z,3168.00
2018-10-11T10:44:31.634Z,3200.00
2018-10-11T10:45:31.603Z,3240.00
2018-10-11T10:46:31.470Z,3320.00
2018-10-11T10:47:31.398Z,3440.00
2018-10-11T10:48:31.321Z,3564.00
2018-10-11T10:49:31.319Z,5028.00
2018-10-11T10:50:31.173Z,4092.00
2018-10-11T10:51:31.138Z,4072.00
2018-10-11T10:52:31.028Z,4340.00
2018-10-11T10:53:30.955Z,4420.00
2018-10-11T10:54:30.891Z,4492.00
2018-10-11T10:55:30.811Z,4584.00
2018-10-11T10:56:30.736Z,4776.00
2018-10-11T10:57:30.662Z,5052.00
2018-10-11T10:58:30.592Z,5544.00
2018-10-11T10:59:30.523Z,6440.00
2018-10-11T11:00:30.445Z,7344.00
2018-10-11T11:01:30.376Z,15456.00
2018-10-11T11:02:30.301Z,14452.00
2018-10-11T11:03:30.230Z,21216.00
2018-10-11T11:04:30.158Z,35360.00
2018-10-11T11:05:30.084Z,19936.00
2018-10-11T11:06:30.012Z,9752.00
2018-10-11T11:07:30.056Z,9560.00
2018-10-11T11:08:29.938Z,9936.00
2018-10-11T11:09:29.804Z,10816.00
2018-10-11T11:10:29.734Z,12820.00
2018-10-11T11:11:29.693Z,37984.00
2018-10-11T11:12:29.600Z,52032.00
2018-10-11T11:13:29.533Z,82016.00
2018-10-11T11:14:29.466Z,88160.00
2018-10-11T11:15:29.405Z,89440.00
2018-10-11T11:16:29.587Z,86144.00
2018-10-11T11:17:29.271Z,86688.00
2018-10-11T11:18:29.203Z,87008.00
2018-10-11T11:19:29.133Z,87104.00
2018-10-11T11:20:29.069Z,84512.00
2018-10-11T11:21:29.017Z,86400.00
2018-10-11T11:22:28.959Z,87584.00
2018-10-11T11:23:28.907Z,89248.00
2018-10-11T11:24:28.817Z,85888.00
2018-10-11T11:25:28.759Z,89056.00
2018-10-11T11:26:28.698Z,85120.00
2018-10-11T11:27:28.630Z,86112.00
2018-10-11T11:28:28.601Z,89664.00
2018-10-11T11:29:28.505Z,86880.00
2018-10-11T11:30:28.444Z,89536.00
2018-10-11T11:31:28.385Z,86976.00
2018-10-11T11:32:28.331Z,85056.00
2018-10-11T11:33:28.263Z,88800.00
2018-10-11T11:34:28.203Z,86688.00
2018-10-11T11:35:28.138Z,89536.00
2018-10-11T11:36:28.079Z,86528.00
2018-10-11T11:37:28.020Z,81504.00
2018-10-11T11:38:27.967Z,79520.00
2018-10-11T11:39:27.905Z,81120.00
2018-10-11T11:40:27.844Z,77024.00
2018-10-11T11:41:27.786Z,78880.00
2018-10-11T11:42:27.729Z,86208.00
2018-10-11T11:43:27.682Z,90656.00
2018-10-11T11:44:27.609Z,85920.00
2018-10-11T11:45:27.605Z,85120.00
2018-10-11T11:46:27.496Z,82048.00
2018-10-11T11:47:27.435Z,86240.00
2018-10-11T11:48:27.378Z,79840.00
2018-10-11T11:49:27.399Z,78656.00
2018-10-11T11:50:27.300Z,83104.00
2018-10-11T11:51:27.213Z,84672.00
2018-10-11T11:52:27.153Z,85024.00
2018-10-11T11:53:27.122Z,90432.00
2018-10-11T11:54:27.034Z,87808.00
2018-10-11T11:55:26.992Z,86784.00
2018-10-11T11:56:26.940Z,84192.00
2018-10-11T11:57:26.863Z,83168.00
2018-10-11T11:58:26.812Z,86976.00
2018-10-11T11:59:26.756Z,86176.00
2018-10-11T12:00:26.709Z,91648.00
2018-10-11T12:01:26.641Z,92192.00
2018-10-11T12:02:26.585Z,95488.00
2018-10-11T12:03:26.568Z,90272.00
2018-10-11T12:04:26.493Z,89152.00
2018-10-11T12:05:26.420Z,89632.00
2018-10-11T12:06:26.359Z,88064.00
2018-10-11T12:07:26.328Z,93568.00
2018-10-11T12:08:26.250Z,85152.00
2018-10-11T12:09:26.216Z,87744.00
2018-10-11T12:10:26.147Z,91904.00
2018-10-11T12:11:26.101Z,86464.00
2018-10-11T12:12:26.034Z,94016.00
2018-10-11T12:13:25.977Z,91200.00
2018-10-11T12:14:25.920Z,93856.00
2018-10-11T12:15:25.860Z,87520.00
2018-10-11T12:16:25.844Z,91648.00
2018-10-11T12:17:25.749Z,89152.00
2018-10-11T12:18:25.692Z,100192.00
2018-10-11T12:19:25.636Z,100512.00
2018-10-11T12:20:25.582Z,92864.00
2018-10-11T12:21:25.529Z,91936.00
2018-10-11T12:22:25.474Z,93216.00
2018-10-11T12:23:25.429Z,92544.00
2018-10-11T12:24:25.365Z,95616.00
2018-10-11T12:25:25.307Z,96352.00
2018-10-11T12:26:25.269Z,92672.00
2018-10-11T12:27:25.203Z,70368.00
2018-10-11T12:28:25.287Z,40864.00
2018-10-11T12:29:25.087Z,15264.00
2018-10-11T12:30:25.035Z,10888.00
2018-10-11T12:31:24.980Z,10476.00
2018-10-11T12:32:24.929Z,10276.00
2018-10-11T12:33:24.867Z,10076.00
2018-10-11T12:34:24.813Z,9996.00
2018-10-11T12:35:24.758Z,10112.00
2018-10-11T12:36:24.743Z,10948.00
2018-10-11T12:37:24.649Z,30944.00
2018-10-11T12:38:24.600Z,56128.00
2018-10-11T12:39:24.554Z,79648.00
2018-10-11T12:40:24.543Z,89312.00
2018-10-11T12:41:24.439Z,82720.00
2018-10-11T12:42:24.408Z,88640.00
2018-10-11T12:43:24.314Z,96608.00
2018-10-11T12:44:24.254Z,98688.00
2018-10-11T12:45:24.275Z,100800.00
2018-10-11T12:46:24.139Z,84672.00
2018-10-11T12:47:24.085Z,54016.00
2018-10-11T12:48:24.120Z,24480.00
2018-10-11T12:49:24.019Z,10640.00
2018-10-11T12:50:23.911Z,10140.00
2018-10-11T12:51:23.854Z,9764.00
2018-10-11T12:52:23.799Z,9544.00
2018-10-11T12:53:23.745Z,9356.00